Weather at KFOR Base Airfield

Public forecast

Using degrees Celsius for public forecast. Weather courtesy of forecast.io.

Closest aviation weather report (METAR) to KFOR Base Airfield

Closest report is Pri┼ítina Adem Jashari International Airport, 15.3 nm (28.3 km) NNW.

2023/03/23 12:00 (retrieved 20 minutes ago)

BKPR 231200Z 11004KT 080V160 9999 FEW040 17/03 Q1016 NOSIG

Closest aviation forecast (TAF) to KFOR Base Airfield

Closest forecast is Pri┼ítina Adem Jashari International Airport, 15.3 nm (28.3 km) NNW.

2023/03/23 12:00 (retrieved 20 minutes ago)

TAF BKPR 231130Z 2312/2412 VRB05KT CAVOK